U vindt ons ook hier:

Het Weer Aktueel

European Weather Network

Weather Underground

AWEKAS

WeatherlinkIP

HAMweather, WeatherForYou, PWS Weather


METAR rapporten vliegvelden

   
EHAM - Amsterdam/Schiph, Netherlands
Afstand tot: NW 32 km
Gewijzigd: 20-04-2018 19:25
Helder  
Helder  
   Wind: WNW 14.8 km/h
Wind: WNW 14.8 km/h
Temperatuur: 19°C
Dauwpunt: 11°C
Vochtigheid: 60%
Barometer: 1021 hPa
Zicht: meer dan 10 km
Bewolking: Helder
EHAM 201725Z 30008KT CAVOK 19/11 Q1021 NOSIG
EHRD - Rotterdam Airpor, Netherlands
Afstand tot: WZW 45 km
Gewijzigd: 20-04-2018 19:55
Gedeeltelijk bewolkt  
Gedeeltelijk bewolkt  
   Wind: Westen 9.3 km/h
Wind: Westen 9.3 km/h
Temperatuur: 17°C
Dauwpunt: 12°C
Vochtigheid: 73%
Barometer: 1021 hPa
Bewolking: Gedeeltelijk bewolkt
Zicht: 7 km
Bewolking: Gedeeltelijk bewolkt
EHRD 201755Z AUTO 27005KT 7000 NSC 17/12 Q1021 BECMG 8000
EHDL - Deelen Rnlafb, Netherlands
Afstand tot: O 55 km
Gewijzigd: 20-04-2018 19:55
Bewolking  
Bewolking  
   Wind: WNW 13 km/h
Wind: WNW 13 km/h
Temperatuur: 23°C
Dauwpunt: 6°C
Vochtigheid: 33%
Barometer: 1021 hPa
Bewolking: Bewolking
Zicht: meer dan 10 km
Bewolking: Bewolking 29000 ft
EHDL 201755Z AUTO 30007KT 260V340 9999 OVC290 23/06 Q1021 BLU
EHGR - Gilze-Rijen Rnla, Netherlands
Afstand tot: Z 59 km
Gewijzigd: 20-04-2018 19:55
Helder  
Helder  
   Wind: WNW 14.8 km/h
Wind: WNW 14.8 km/h
Temperatuur: 22°C
Dauwpunt: 13°C
Vochtigheid: 57%
Barometer: 1021 hPa
Bewolking: Helder
Zicht: meer dan 10 km
Bewolking: Helder
EHGR 201755Z AUTO 30008KT 270V340 9999 NCD 22/13 Q1021 BLU
EHVK - Volkel Rnlafb, Netherlands
Afstand tot: ZO 67 km
Gewijzigd: 20-04-2018 19:55
Bewolking  
Bewolking  
   Wind: WNW 7.4 km/h
Wind: WNW 7.4 km/h
Temperatuur: 24°C
Dauwpunt: 9°C
Vochtigheid: 39%
Barometer: 1021 hPa
Bewolking: Bewolking
Zicht: meer dan 10 km
Bewolking: Bewolking 30000 ft
EHVK 201755Z AUTO 30004KT 270V340 9999 OVC300 24/09 Q1021 BLU
EHEH - Eindhoven Rnlafb, Netherlands
Afstand tot: ZZO 74 km
Gewijzigd: 20-04-2018 19:55
Bewolking  
Bewolking  
   Wind: NW 9.3 km/h
Wind: NW 9.3 km/h
Temperatuur: 23°C
Dauwpunt: 9°C
Vochtigheid: 41%
Barometer: 1021 hPa
Bewolking: Bewolking
Zicht: meer dan 10 km
Bewolking: Bewolking 31000 ft
EHEH 201755Z AUTO 31005KT 260V350 9999 OVC310 23/09 Q1021 BLU 31007KT CAVOK

Script ontwikkeld door  Saratoga-weather.org Aangepast voor de template door  Weerstation Leuven

Apparatuur in gebruik:

Weerstation
Davis VP2 Plus (Wireless)

Weerprogramma
Cumulus

Weercomputer
Shuttle Inc. SFM27

Webleverancier
Antagonist Webhosting

Davis VP2 Plus (Wireless)

Cumulus

Shuttle Inc. SFM27

Antagonist Webhosting